Time;durP1;ratioP1;P1;durP2;ratioP2;P2;SDS_P1;SDS_P2;PMS_P1;PMS_P2;Temp;Humidity;BMP_temperature;BMP_pressure;BME280_temperature;BME280_humidity;BME280_pressure;Samples;Min_cycle;Max_cycle;Signal;HPM_P1;HPM_P2
2022/01/31 00:00:45;;;;;;;12.30;3.67;;;;;;;2.45;94.94;101264.44;5081452;28;20542;-75
2022/01/31 00:03:11;;;;;;;8.13;2.22;;;;;;;2.40;94.33;101235.22;5079003;28;20036;-75
2022/01/31 00:05:36;;;;;;;11.95;1.85;;;;;;;2.54;94.23;101244.00;5081725;28;20103;-75
2022/01/31 00:08:02;;;;;;;15.15;2.85;;;;;;;2.49;94.05;101217.38;5083948;28;20509;-75
2022/01/31 00:10:29;;;;;;;9.55;2.70;;;;;;;2.49;93.82;101206.97;5098669;28;20059;-75
2022/01/31 00:13:02;;;;;;;21.05;3.65;;;;;;;2.39;94.13;101175.38;5095765;28;20420;-75
2022/01/31 00:15:28;;;;;;;14.63;3.88;;;;;;;2.31;93.97;101160.22;5098109;28;20031;-75
2022/01/31 00:17:54;;;;;;;11.32;2.92;;;;;;;2.34;94.52;101159.19;5097454;28;20020;-75
2022/01/31 00:20:20;;;;;;;18.95;3.60;;;;;;;2.40;94.67;101166.66;5080187;28;20451;-75
2022/01/31 00:22:45;;;;;;;16.15;3.90;;;;;;;2.39;95.40;101157.97;5081160;28;20124;-75
2022/01/31 00:25:10;;;;;;;12.10;4.22;;;;;;;2.29;95.76;101125.59;5100348;28;20039;-75
2022/01/31 00:27:36;;;;;;;13.27;3.50;;;;;;;2.39;95.18;101137.13;5095481;28;20028;-75
2022/01/31 00:30:03;;;;;;;7.43;3.35;;;;;;;2.32;95.48;101107.19;5098241;28;20036;-75
2022/01/31 00:32:29;;;;;;;12.82;3.55;;;;;;;2.34;95.44;101099.28;5077546;28;20055;-75
2022/01/31 00:34:56;;;;;;;17.23;5.07;;;;;;;2.43;95.12;101083.94;5060200;28;20032;-75
2022/01/31 00:37:22;;;;;;;12.10;4.28;;;;;;;2.42;95.48;101074.47;5096920;28;20144;-75
2022/01/31 00:39:47;;;;;;;16.77;4.40;;;;;;;2.46;95.02;101070.75;5078773;28;20398;-73
2022/01/31 00:42:12;;;;;;;18.45;3.80;;;;;;;2.46;95.30;101051.66;5095799;28;20527;-74
2022/01/31 00:44:52;;;;;;;13.35;3.88;;;;;;;2.49;95.39;101045.44;5080377;28;20028;-74
2022/01/31 00:47:30;;;;;;;15.15;3.95;;;;;;;2.52;95.79;101022.63;5095984;28;20019;-74
2022/01/31 00:50:11;;;;;;;15.27;4.22;;;;;;;2.52;95.19;101014.81;5097944;28;20090;-74
2022/01/31 00:52:42;;;;;;;14.88;3.53;;;;;;;2.56;96.09;100997.22;5097808;28;20020;-74
2022/01/31 00:55:09;;;;;;;14.60;3.30;;;;;;;2.49;95.06;100978.53;5097455;28;20403;-74
2022/01/31 00:57:35;;;;;;;11.23;3.13;;;;;;;2.47;95.75;100970.81;5095693;28;20032;-75
2022/01/31 01:00:01;;;;;;;15.88;3.78;;;;;;;2.47;96.37;100947.34;5097063;28;20088;-75
2022/01/31 01:02:26;;;;;;;14.18;3.97;;;;;;;2.45;95.92;100933.59;5097784;28;20019;-75
2022/01/31 01:04:53;;;;;;;10.60;2.85;;;;;;;2.42;96.51;100923.38;5077940;28;20042;-75
2022/01/31 01:07:22;;;;;;;11.90;3.08;;;;;;;2.52;97.14;100934.03;5099378;28;20030;-75
2022/01/31 01:09:48;;;;;;;10.20;3.35;;;;;;;2.45;96.77;100901.50;5039387;28;1092197;-75
2022/01/31 01:12:17;;;;;;;16.02;5.00;;;;;;;2.51;97.54;100905.50;5078268;28;20024;-75
2022/01/31 01:14:43;;;;;;;11.68;3.47;;;;;;;2.51;98.44;100905.50;5097760;28;20032;-75
2022/01/31 01:17:09;;;;;;;14.73;4.88;;;;;;;2.43;99.17;100893.78;5099055;28;20021;-75
2022/01/31 01:19:34;;;;;;;22.58;4.45;;;;;;;2.37;100.00;100883.72;5080174;28;20042;-75
2022/01/31 01:22:00;;;;;;;13.40;5.40;;;;;;;2.27;100.00;100867.03;5078129;28;20042;-75
2022/01/31 01:24:26;;;;;;;20.98;5.00;;;;;;;2.30;100.00;100861.63;5060958;28;20126;-75
2022/01/31 01:26:51;;;;;;;15.35;5.07;;;;;;;2.31;100.00;100855.50;5080619;28;20540;-75
2022/01/31 01:29:17;;;;;;;13.95;4.70;;;;;;;2.21;100.00;100836.16;5098624;28;20027;-75
2022/01/31 01:31:46;;;;;;;16.25;4.38;;;;;;;2.17;100.00;100813.84;5097065;28;20491;-75
2022/01/31 01:34:12;;;;;;;13.40;4.82;;;;;;;2.24;100.00;100821.19;5077023;28;20128;-74
2022/01/31 01:36:38;;;;;;;16.63;4.55;;;;;;;2.22;100.00;100811.78;5071008;28;20035;-74
2022/01/31 01:39:05;;;;;;;18.42;5.93;;;;;;;2.18;100.00;100799.91;5079125;28;20032;-74
2022/01/31 01:41:30;;;;;;;19.23;5.90;;;;;;;2.03;100.00;100760.06;5077167;28;20028;-74
2022/01/31 01:43:56;;;;;;;17.10;6.15;;;;;;;2.13;100.00;100770.72;5097333;28;20483;-74
2022/01/31 01:46:21;;;;;;;22.85;7.22;;;;;;;2.13;100.00;100765.50;5097856;28;20031;-74
2022/01/31 01:48:47;;;;;;;18.50;6.28;;;;;;;2.10;100.00;100756.13;5077743;28;20066;-75
2022/01/31 01:51:13;;;;;;;14.93;6.65;;;;;;;2.11;100.00;100736.94;5074753;28;20552;-74
2022/01/31 01:53:38;;;;;;;20.77;7.40;;;;;;;2.09;100.00;100735.38;5095456;28;20027;-74
2022/01/31 01:56:04;;;;;;;22.65;7.05;;;;;;;2.04;100.00;100723.50;5096843;28;20235;-74
2022/01/31 01:58:37;;;;;;;16.17;6.95;;;;;;;1.79;100.00;100669.59;5082070;28;20027;-74
2022/01/31 02:01:03;;;;;;;18.98;6.90;;;;;;;1.90;100.00;100681.91;5078916;28;20123;-76
2022/01/31 02:03:31;;;;;;;20.75;8.40;;;;;;;1.93;100.00;100671.28;5098921;28;20034;-76
2022/01/31 02:05:57;;;;;;;26.98;9.25;;;;;;;1.71;100.00;100645.81;5075715;28;20056;-76
2022/01/31 02:08:24;;;;;;;20.80;10.82;;;;;;;1.68;100.00;100624.34;5078147;28;20119;-76
2022/01/31 02:10:50;;;;;;;15.77;8.07;;;;;;;1.88;100.00;100647.34;5079558;27;20028;-77
2022/01/31 02:13:16;;;;;;;17.88;8.10;;;;;;;1.84;100.00;100641.50;5095384;28;20060;-77
2022/01/31 02:15:45;;;;;;;26.70;9.45;;;;;;;1.72;100.00;100618.88;5098475;28;20471;-77
2022/01/31 02:18:11;;;;;;;20.23;8.75;;;;;;;1.81;100.00;100617.44;5095569;28;20475;-77
2022/01/31 02:20:38;;;;;;;21.58;11.63;;;;;;;1.77;100.00;100621.19;5076285;28;20071;-76
2022/01/31 02:23:07;;;;;;;20.92;8.77;;;;;;;1.73;100.00;100596.28;5078330;28;20420;-77
2022/01/31 02:25:32;;;;;;;16.75;9.52;;;;;;;1.60;100.00;100565.03;5083769;28;20019;-77
2022/01/31 02:27:57;;;;;;;18.52;9.27;;;;;;;1.72;100.00;100581.59;5074322;28;20043;-76
2022/01/31 02:30:23;;;;;;;18.65;9.48;;;;;;;1.73;100.00;100567.66;5076160;28;20024;-76
2022/01/31 02:32:48;;;;;;;21.33;10.93;;;;;;;1.55;100.00;100531.53;5058872;28;20032;-76
2022/01/31 02:35:14;;;;;;;32.83;10.65;;;;;;;1.68;100.00;100535.91;5100359;28;20487;-77
2022/01/31 02:37:40;;;;;;;20.15;8.95;;;;;;;1.58;100.00;100515.69;5100154;28;20232;-77
2022/01/31 02:40:06;;;;;;;23.38;11.73;;;;;;;1.60;100.00;100526.00;5080605;28;20543;-77
2022/01/31 02:42:31;;;;;;;18.60;8.88;;;;;;;1.59;100.00;100519.13;5082288;28;20036;-77
2022/01/31 02:44:56;;;;;;;23.40;8.55;;;;;;;1.62;100.00;100506.75;5058316;28;20522;-76
2022/01/31 02:47:28;;;;;;;14.10;7.70;;;;;;;1.62;100.00;100509.38;5078835;28;20016;-76
2022/01/31 02:50:02;;;;;;;17.02;8.05;;;;;;;1.34;100.00;100504.28;5076967;28;20584;-76
2022/01/31 02:52:31;;;;;;;15.85;9.13;;;;;;;1.20;100.00;100474.81;5095401;28;20024;-77
2022/01/31 02:54:57;;;;;;;21.77;10.10;;;;;;;1.17;100.00;100476.78;5066350;28;20305;-77
2022/01/31 02:57:23;;;;;;;14.45;8.65;;;;;;;1.09;100.00;100453.91;5094375;28;20059;-77
2022/01/31 02:59:49;;;;;;;17.02;7.88;;;;;;;1.02;100.00;100434.41;5090951;28;20094;-76
2022/01/31 03:02:14;;;;;;;11.60;6.65;;;;;;;1.19;100.00;100448.94;5091611;28;20031;-76
2022/01/31 03:04:40;;;;;;;16.35;8.52;;;;;;;1.13;100.00;100437.19;5075523;28;20396;-77
2022/01/31 03:07:06;;;;;;;13.25;7.50;;;;;;;1.10;100.00;100413.97;5073487;28;20134;-76
2022/01/31 03:09:31;;;;;;;19.98;7.00;;;;;;;1.01;100.00;100402.41;5094102;28;20052;-76
2022/01/31 03:11:58;;;;;;;17.70;10.63;;;;;;;1.14;100.00;100417.22;5072169;28;20083;-77
2022/01/31 03:14:23;;;;;;;12.57;8.60;;;;;;;1.21;100.00;100402.88;5098051;28;20024;-77
2022/01/31 03:16:49;;;;;;;15.93;8.30;;;;;;;1.18;100.00;100398.72;5092469;28;20163;-77
2022/01/31 03:19:16;;;;;;;15.90;9.40;;;;;;;1.14;100.00;100381.66;5078003;28;20025;-77
2022/01/31 03:21:42;;;;;;;20.52;11.93;;;;;;;1.21;100.00;100377.69;5081462;28;20028;-76
2022/01/31 03:24:09;;;;;;;21.48;9.55;;;;;;;1.17;100.00;100352.84;5096179;28;20027;-76
2022/01/31 03:26:35;;;;;;;22.17;9.77;;;;;;;1.35;100.00;100373.34;5087623;28;20028;-76
2022/01/31 03:29:01;;;;;;;14.88;8.50;;;;;;;1.37;100.00;100348.06;5095389;28;20036;-76
2022/01/31 03:31:26;;;;;;;19.42;9.43;;;;;;;1.46;100.00;100338.81;5097288;28;20480;-76
2022/01/31 03:33:53;;;;;;;18.83;9.55;;;;;;;1.51;100.00;100337.59;5077071;28;20119;-76
2022/01/31 03:36:20;;;;;;;17.17;10.23;;;;;;;1.59;100.00;100335.31;5080342;28;20020;-76
2022/01/31 03:38:46;;;;;;;17.38;10.07;;;;;;;1.48;100.00;100310.94;5101589;28;20040;-77
2022/01/31 03:41:13;;;;;;;21.55;9.85;;;;;;;1.67;100.00;100311.34;5100215;28;20036;-76
2022/01/31 03:43:39;;;;;;;23.17;12.43;;;;;;;1.77;100.00;100316.75;5073253;28;20031;-76
2022/01/31 03:46:04;;;;;;;22.02;10.88;;;;;;;1.83;100.00;100306.75;5095759;28;20383;-76
2022/01/31 03:48:30;;;;;;;18.60;8.00;;;;;;;1.86;100.00;100290.09;5093450;28;20678;-76
2022/01/31 03:50:57;;;;;;;14.82;8.52;;;;;;;1.97;100.00;100289.34;5082424;28;20053;-76
2022/01/31 03:53:22;;;;;;;18.70;8.68;;;;;;;2.04;100.00;100277.53;5074913;28;20028;-77
2022/01/31 03:55:48;;;;;;;17.35;9.57;;;;;;;2.08;100.00;100281.59;5077421;28;20458;-77
2022/01/31 03:58:13;;;;;;;15.82;8.52;;;;;;;2.02;100.00;100256.81;5080101;28;20472;-77
2022/01/31 04:00:39;;;;;;;15.80;9.27;;;;;;;2.12;100.00;100264.00;5103863;28;20036;-77
2022/01/31 04:03:05;;;;;;;13.68;6.72;;;;;;;2.17;100.00;100247.09;5082910;28;20497;-77
2022/01/31 04:05:31;;;;;;;16.15;6.93;;;;;;;2.43;100.00;100258.22;5098850;28;20024;-77
2022/01/31 04:07:57;;;;;;;15.40;6.28;;;;;;;2.55;100.00;100243.47;5082700;28;20024;-77
2022/01/31 04:10:23;;;;;;;8.55;5.80;;;;;;;2.64;100.00;100239.38;5079860;28;20060;-77
2022/01/31 04:12:49;;;;;;;24.27;7.13;;;;;;;2.78;100.00;100240.94;5057516;28;20020;-78
2022/01/31 04:15:14;;;;;;;18.77;5.20;;;;;;;2.86;100.00;100236.81;5079742;28;20400;-77
2022/01/31 04:17:40;;;;;;;22.13;4.65;;;;;;;2.97;100.00;100229.97;5073765;28;20020;-77
2022/01/31 04:20:07;;;;;;;14.07;3.90;;;;;;;3.06;100.00;100244.91;5095487;28;20438;-77
2022/01/31 04:22:36;;;;;;;12.95;2.80;;;;;;;2.94;100.00;100215.41;5099506;28;20008;-77
2022/01/31 04:25:05;;;;;;;9.15;2.03;;;;;;;3.16;100.00;100237.19;5074921;28;20353;-77
2022/01/31 04:27:43;;;;;;;8.13;1.48;;;;;;;2.97;100.00;100204.72;5081225;28;20432;-77
2022/01/31 04:30:11;;;;;;;8.45;1.80;;;;;;;3.10;100.00;100220.25;5083441;28;20372;-77
2022/01/31 04:32:36;;;;;;;4.28;1.00;;;;;;;3.10;100.00;100204.63;5097372;28;20028;-77
2022/01/31 04:35:02;;;;;;;8.73;1.75;;;;;;;3.19;100.00;100214.34;5043500;28;20051;-77
2022/01/31 04:37:28;;;;;;;9.52;1.27;;;;;;;3.24;100.00;100204.38;5083466;28;20308;-77
2022/01/31 04:39:53;;;;;;;5.15;1.23;;;;;;;3.15;100.00;100179.00;5106078;28;20027;-76
2022/01/31 04:42:19;;;;;;;7.90;1.90;;;;;;;3.34;100.00;100188.03;5062263;28;20039;-77
2022/01/31 04:44:45;;;;;;;22.90;2.55;;;;;;;3.38;100.00;100186.84;5105236;28;20114;-78
2022/01/31 04:47:10;;;;;;;9.75;2.47;;;;;;;3.30;100.00;100162.16;5086706;28;20031;-77
2022/01/31 04:49:36;;;;;;;12.85;1.80;;;;;;;3.47;100.00;100186.13;5076126;28;20028;-77
2022/01/31 04:52:01;;;;;;;9.38;2.00;;;;;;;3.48;100.00;100192.97;5106004;28;20028;-77
2022/01/31 04:54:27;;;;;;;11.23;1.40;;;;;;;3.49;100.00;100186.81;5084404;28;20503;-77
2022/01/31 04:56:52;;;;;;;14.75;2.45;;;;;;;3.58;100.00;100173.06;5105649;28;20057;-77
2022/01/31 04:59:18;;;;;;;22.13;2.63;;;;;;;3.59;100.00;100179.09;5103325;28;20055;-77
2022/01/31 05:01:46;;;;;;;11.85;1.85;;;;;;;3.63;100.00;100181.34;5103624;28;20024;-77
2022/01/31 05:04:11;;;;;;;16.75;3.13;;;;;;;3.57;100.00;100181.84;5082684;28;20042;-77
2022/01/31 05:06:39;;;;;;;5.25;1.88;;;;;;;3.58;100.00;100173.06;5097314;28;20019;-77
2022/01/31 05:09:06;;;;;;;15.02;2.67;;;;;;;3.50;100.00;100150.16;5109666;28;20054;-77
2022/01/31 05:11:32;;;;;;;16.15;2.47;;;;;;;3.55;100.00;100156.78;5087069;28;20340;-78
2022/01/31 05:13:57;;;;;;;13.20;1.92;;;;;;;3.49;100.00;100150.31;5101131;28;20037;-78
2022/01/31 05:16:23;;;;;;;9.57;1.77;;;;;;;3.57;100.00;100165.34;5104898;28;20027;-77
2022/01/31 05:18:48;;;;;;;9.43;1.83;;;;;;;3.47;100.00;100146.97;5104429;28;20073;-77
2022/01/31 05:21:14;;;;;;;13.68;3.10;;;;;;;3.57;100.00;100162.72;5070825;28;20451;-77
2022/01/31 05:23:39;;;;;;;21.08;2.65;;;;;;;3.63;100.00;100165.66;5107658;28;20024;-77
2022/01/31 05:26:05;;;;;;;8.15;1.38;;;;;;;3.37;100.00;100114.75;5096969;28;20024;-77
2022/01/31 05:28:31;;;;;;;14.05;1.60;;;;;;;3.60;100.00;100158.09;5104173;28;20066;-77
2022/01/31 05:30:56;;;;;;;9.40;1.63;;;;;;;3.51;100.00;100143.19;5080056;28;20043;-76
2022/01/31 05:33:21;;;;;;;15.45;1.13;;;;;;;3.53;100.00;100143.91;5100954;28;20507;-76
2022/01/31 05:35:47;;;;;;;10.85;1.63;;;;;;;3.42;100.00;100141.28;5107061;28;20032;-76
2022/01/31 05:38:12;;;;;;;6.57;1.17;;;;;;;3.42;100.00;100129.09;5084713;28;20058;-76
2022/01/31 05:40:38;;;;;;;9.38;0.90;;;;;;;3.38;100.00;100132.88;5086996;28;20076;-76
2022/01/31 05:43:04;;;;;;;8.55;1.27;;;;;;;3.26;100.00;100118.19;5095196;27;20028;-76
2022/01/31 05:45:29;;;;;;;5.38;0.63;;;;;;;3.32;100.00;100127.31;5056559;28;20032;-77
2022/01/31 05:47:55;;;;;;;6.75;1.33;;;;;;;3.33;100.00;100121.97;5095658;28;20027;-77
2022/01/31 05:50:20;;;;;;;3.05;0.88;;;;;;;3.32;100.00;100111.69;5076793;28;20391;-77
2022/01/31 05:52:46;;;;;;;10.05;1.17;;;;;;;3.35;100.00;100119.25;5065965;28;20363;-78
2022/01/31 05:55:13;;;;;;;6.25;1.52;;;;;;;3.41;100.00;100122.19;5098260;28;20078;-78
2022/01/31 05:57:38;;;;;;;6.78;0.88;;;;;;;3.45;100.00;100130.63;5101412;28;20111;-77
2022/01/31 06:00:08;;;;;;;9.18;1.45;;;;;;;3.50;100.00;100128.47;5068169;28;20091;-77
2022/01/31 06:02:35;;;;;;;5.55;1.15;;;;;;;3.46;100.00;100106.19;5102043;28;20027;-77
2022/01/31 06:05:01;;;;;;;4.50;1.20;;;;;;;3.44;100.00;100097.66;5076801;28;20028;-77
2022/01/31 06:07:26;;;;;;;16.42;1.98;;;;;;;3.53;100.00;100109.97;5072244;28;20483;-77
2022/01/31 06:09:52;;;;;;;9.05;1.98;;;;;;;3.51;100.00;100106.66;5075779;28;20040;-77
2022/01/31 06:12:17;;;;;;;5.82;1.30;;;;;;;3.41;100.00;100092.69;5083685;28;20055;-77
2022/01/31 06:14:43;;;;;;;8.70;1.25;;;;;;;3.48;100.00;100097.31;5104008;28;20024;-77
2022/01/31 06:17:08;;;;;;;7.15;1.13;;;;;;;3.43;100.00;100082.97;5087031;28;20031;-77
2022/01/31 06:19:33;;;;;;;6.00;1.30;;;;;;;3.56;100.00;100103.69;5101180;28;20036;-77
2022/01/31 06:21:59;;;;;;;8.55;1.33;;;;;;;3.56;100.00;100095.84;5093278;28;20039;-77
2022/01/31 06:24:25;;;;;;;7.03;1.33;;;;;;;3.44;100.00;100068.94;5104256;28;20570;-77
2022/01/31 06:26:51;;;;;;;5.47;0.93;;;;;;;3.54;100.00;100087.31;5082320;28;20031;-78
2022/01/31 06:29:16;;;;;;;13.98;1.67;;;;;;;3.63;100.00;100095.22;5076841;28;20020;-77
2022/01/31 06:31:42;;;;;;;9.15;1.40;;;;;;;3.52;100.00;100073.56;5082129;28;20386;-77
2022/01/31 06:34:07;;;;;;;6.90;1.13;;;;;;;3.54;100.00;100090.75;5073069;28;20024;-77
2022/01/31 06:36:32;;;;;;;7.32;1.63;;;;;;;3.50;100.00;100087.53;5086486;28;20080;-77
2022/01/31 06:38:58;;;;;;;10.77;1.67;;;;;;;3.39;100.00;100073.72;5071895;28;20376;-77
2022/01/31 06:41:26;;;;;;;4.22;1.27;;;;;;;3.39;100.00;100084.97;5088173;28;20032;-76
2022/01/31 06:43:52;;;;;;;9.68;1.83;;;;;;;3.37;100.00;100086.06;5103989;28;20020;-77
2022/01/31 06:46:18;;;;;;;7.63;1.15;;;;;;;3.19;100.00;100057.88;5110303;28;20169;-77
2022/01/31 06:48:43;;;;;;;6.72;1.05;;;;;;;3.39;100.00;100078.94;5054201;28;20043;-77
2022/01/31 06:51:08;;;;;;;4.07;1.25;;;;;;;3.43;100.00;100077.75;5097309;28;20034;-77
2022/01/31 06:53:35;;;;;;;16.73;2.75;;;;;;;3.39;100.00;100069.31;5107770;28;20031;-77
2022/01/31 06:56:01;;;;;;;11.75;1.48;;;;;;;3.39;100.00;100063.28;5080156;28;20442;-77
2022/01/31 06:58:27;;;;;;;10.40;1.50;;;;;;;3.45;100.00;100068.00;5103239;28;20023;-77
2022/01/31 07:00:54;;;;;;;1.98;0.45;;;;;;;3.56;100.00;100081.00;5105717;28;20035;-77
2022/01/31 07:03:20;;;;;;;5.45;1.08;;;;;;;3.47;100.00;100064.31;5088503;28;20584;-77
2022/01/31 07:05:46;;;;;;;2.55;0.70;;;;;;;3.61;100.00;100078.03;5077725;28;20076;-77
2022/01/31 07:08:12;;;;;;;9.75;1.42;;;;;;;3.60;100.00;100072.00;5089924;28;20091;-77
2022/01/31 07:10:38;;;;;;;4.38;1.10;;;;;;;3.65;100.00;100063.78;5087689;28;20056;-77
2022/01/31 07:13:24;;;;;;;7.15;1.10;;;;;;;3.64;100.00;100057.75;5098169;28;20016;-77
2022/01/31 07:15:50;;;;;;;7.13;1.25;;;;;;;3.69;100.00;100063.41;5087496;28;20472;-77
2022/01/31 07:18:15;;;;;;;9.05;1.38;;;;;;;3.67;100.00;100061.88;5079452;28;20023;-77
2022/01/31 07:20:43;;;;;;;6.20;1.13;;;;;;;3.69;100.00;100055.59;5060616;28;20043;-77
2022/01/31 07:23:15;;;;;;;9.68;1.10;;;;;;;3.62;100.00;100044.00;5082149;28;20020;-77
2022/01/31 07:25:41;;;;;;;3.90;1.00;;;;;;;3.72;100.00;100059.72;5081658;28;20131;-77
2022/01/31 07:28:10;;;;;;;2.95;0.60;;;;;;;3.63;100.00;100056.06;5106525;28;20084;-77
2022/01/31 07:30:38;;;;;;;5.90;1.25;;;;;;;3.74;100.00;100067.44;5087822;28;20023;-77
2022/01/31 07:33:04;;;;;;;9.73;1.70;;;;;;;3.69;100.00;100054.75;5086252;28;20016;-77
2022/01/31 07:35:30;;;;;;;5.68;0.85;;;;;;;3.78;100.00;100069.66;5066705;28;20502;-77
2022/01/31 07:37:55;;;;;;;9.02;1.10;;;;;;;3.80;100.00;100066.94;5096791;28;20107;-77
2022/01/31 07:40:21;;;;;;;6.82;1.05;;;;;;;3.79;100.00;100062.66;5091493;28;20036;-77
2022/01/31 07:42:46;;;;;;;9.60;1.65;;;;;;;3.73;100.00;100055.34;5083451;28;20023;-77
2022/01/31 07:45:12;;;;;;;7.13;1.83;;;;;;;3.74;100.00;100054.38;5076163;28;20039;-77
2022/01/31 07:47:38;;;;;;;8.70;3.70;;;;;;;3.63;100.00;100034.38;5081715;28;20490;-77
2022/01/31 07:50:04;;;;;;;5.25;1.52;;;;;;;3.83;100.00;100080.56;5069655;28;20029;-77
2022/01/31 07:52:31;;;;;;;8.32;1.20;;;;;;;3.82;100.00;100083.31;5106851;28;20020;-77
2022/01/31 07:54:57;;;;;;;5.80;1.27;;;;;;;3.88;100.00;100090.63;5095584;28;20028;-77
2022/01/31 07:57:24;;;;;;;13.00;1.05;;;;;;;3.86;100.00;100074.28;5100332;28;20096;-77
2022/01/31 07:59:50;;;;;;;10.10;1.30;;;;;;;3.97;100.00;100076.81;5071534;28;20031;-77
2022/01/31 08:02:15;;;;;;;4.80;1.27;;;;;;;4.11;100.00;100100.00;5081233;28;20023;-77
2022/01/31 08:04:40;;;;;;;8.98;1.73;;;;;;;4.19;100.00;100103.78;5095759;28;20557;-77
2022/01/31 08:07:06;;;;;;;10.20;1.42;;;;;;;4.04;100.00;100083.19;5096672;28;20023;-77
2022/01/31 08:09:31;;;;;;;7.43;1.63;;;;;;;4.22;100.00;100108.75;5096656;28;20153;-77
2022/01/31 08:11:57;;;;;;;10.60;1.30;;;;;;;4.24;100.00;100118.09;5081930;28;20019;-77
2022/01/31 08:14:22;;;;;;;4.93;0.90;;;;;;;4.29;100.00;100125.56;5096555;28;20030;-78
2022/01/31 08:16:47;;;;;;;4.18;1.38;;;;;;;4.30;100.00;100125.44;5085105;28;20038;-77
2022/01/31 08:19:13;;;;;;;5.15;1.10;;;;;;;4.21;100.00;100113.13;5095892;28;20103;-77
2022/01/31 08:21:38;;;;;;;8.45;1.67;;;;;;;4.30;100.00;100122.00;5057406;28;20113;-77
2022/01/31 08:24:05;;;;;;;5.93;1.02;;;;;;;4.39;100.00;100134.28;5097236;28;20052;-77
2022/01/31 08:26:31;;;;;;;4.15;0.80;;;;;;;4.49;100.00;100143.03;5095904;28;20032;-77
2022/01/31 08:29:01;;;;;;;4.85;1.05;;;;;;;4.50;100.00;100147.28;5099810;28;20031;-77
2022/01/31 08:31:35;;;;;;;7.97;1.48;;;;;;;4.47;100.00;100150.16;5098724;28;20117;-77
2022/01/31 08:36:36;;;;;;;5.97;0.98;;;;;;;4.47;100.00;100160.63;5100738;28;20499;-77
2022/01/31 08:39:09;;;;;;;10.70;1.27;;;;;;;4.57;100.00;100162.44;5084041;28;20562;-77
2022/01/31 08:41:42;;;;;;;6.22;1.42;;;;;;;4.65;100.00;100136.50;5100768;27;20038;-77
2022/01/31 08:44:09;;;;;;;8.70;1.27;;;;;;;4.89;100.00;100147.50;5098499;28;20382;-78
2022/01/31 08:46:39;;;;;;;5.78;0.93;;;;;;;5.09;100.00;100165.91;5070184;28;20509;-78
2022/01/31 08:49:05;;;;;;;8.50;1.20;;;;;;;5.08;100.00;100167.69;5101905;28;20054;-77
2022/01/31 08:51:30;;;;;;;5.28;1.75;;;;;;;4.82;100.00;100124.63;5099307;28;20042;-78
2022/01/31 08:53:56;;;;;;;8.75;1.48;;;;;;;5.21;100.00;100175.31;5064136;28;20286;-77
2022/01/31 08:56:21;;;;;;;14.65;1.40;;;;;;;5.09;100.00;100160.66;5084390;28;20096;-77
2022/01/31 08:58:49;;;;;;;10.07;1.60;;;;;;;5.23;100.00;100181.25;5085206;28;20039;-77
2022/01/31 09:01:18;;;;;;;8.95;1.98;;;;;;;5.13;100.00;100160.25;5095031;28;20574;-77
2022/01/31 09:06:17;;;;;;;17.15;2.17;;;;;;;5.42;100.00;100197.97;5104984;28;20040;-78
2022/01/31 09:08:43;;;;;;;7.78;1.10;;;;;;;5.41;100.00;100178.00;5084532;28;20421;-77
2022/01/31 09:11:09;;;;;;;8.63;1.40;;;;;;;6.28;100.00;100186.00;5037608;28;20114;-78
2022/01/31 09:13:35;;;;;;;6.93;1.60;;;;;;;6.63;100.00;100215.25;5064738;28;20726;-77
2022/01/31 09:16:02;;;;;;;4.30;1.27;;;;;;;7.27;100.00;100196.13;5070575;28;20709;-78
2022/01/31 09:18:28;;;;;;;9.63;1.58;;;;;;;8.11;100.00;100196.94;5041722;28;20024;-78
2022/01/31 09:20:54;;;;;;;14.20;1.77;;;;;;;8.97;100.00;100214.72;5049802;28;20032;-78
2022/01/31 09:23:19;;;;;;;14.43;4.32;;;;;;;10.88;100.00;100214.06;5062303;28;20799;-78
2022/01/31 09:25:47;;;;;;;12.32;1.30;;;;;;;12.18;94.23;100221.66;5071258;28;20029;-78
2022/01/31 09:28:15;;;;;;;9.88;1.55;;;;;;;13.46;84.86;100236.75;5065732;28;20029;-78
2022/01/31 09:30:43;;;;;;;4.18;0.80;;;;;;;15.23;77.79;100242.38;5060764;28;20500;-78
2022/01/31 09:33:09;;;;;;;4.90;1.10;;;;;;;16.37;72.02;100246.31;5072576;28;20436;-78
2022/01/31 09:35:35;;;;;;;6.22;1.05;;;;;;;17.05;67.68;100246.97;5061919;28;20041;-79
2022/01/31 09:38:02;;;;;;;6.70;1.17;;;;;;;17.71;62.13;100255.81;5062487;28;20490;-78
2022/01/31 09:40:27;;;;;;;6.50;1.30;;;;;;;17.57;61.17;100263.06;5060570;28;20384;-78
2022/01/31 09:48:32;;;;;;;4.88;1.45;;;;;;;20.63;52.49;100288.94;5062788;28;20123;-78
2022/01/31 09:51:12;;;;;;;4.30;1.10;;;;;;;21.51;51.51;100281.06;5068930;28;20028;-79
2022/01/31 09:53:41;;;;;;;6.03;1.10;;;;;;;22.33;48.67;100290.75;5078968;28;20037;-79
2022/01/31 09:56:09;;;;;;;5.25;0.88;;;;;;;22.69;48.41;100296.75;5059369;28;20013;-79
2022/01/31 09:58:36;;;;;;;7.15;1.15;;;;;;;23.06;47.04;100305.19;5059236;28;20090;-79
2022/01/31 10:01:17;;;;;;;5.68;1.27;;;;;;;23.47;45.93;100299.56;5075076;28;20044;-79
2022/01/31 10:03:54;;;;;;;7.32;1.38;;;;;;;24.08;45.18;100313.00;5055161;28;20473;-79
2022/01/31 10:06:26;;;;;;;8.05;1.10;;;;;;;24.58;42.53;100309.22;5060505;28;20028;-78
2022/01/31 10:09:09;;;;;;;3.15;0.85;;;;;;;24.12;43.23;100317.66;5057541;28;20142;-78
2022/01/31 10:11:47;;;;;;;3.05;1.20;;;;;;;24.16;42.37;100307.97;5071870;28;20037;-78
2022/01/31 10:17:24;;;;;;;4.03;0.95;;;;;;;24.83;42.69;100344.53;5062831;28;20499;-79
2022/01/31 10:19:53;;;;;;;4.28;0.90;;;;;;;24.93;40.06;100330.31;5059958;28;20396;-79
2022/01/31 10:22:19;;;;;;;3.42;1.20;;;;;;;24.82;39.98;100342.09;5063264;28;20024;-78
2022/01/31 10:24:48;;;;;;;4.88;1.08;;;;;;;25.48;39.99;100335.56;5068349;28;20048;-78
2022/01/31 10:27:17;;;;;;;4.22;1.17;;;;;;;25.35;38.03;100343.06;5062668;28;20090;-78
2022/01/31 10:29:45;;;;;;;5.18;1.17;;;;;;;24.81;41.68;100337.78;5061625;28;20120;-79
2022/01/31 10:32:13;;;;;;;4.30;1.10;;;;;;;25.16;41.08;100322.94;5059363;28;20028;-80
2022/01/31 10:34:51;;;;;;;4.05;1.05;;;;;;;25.35;40.50;100340.38;5065045;28;20024;-79
2022/01/31 10:37:20;;;;;;;4.38;1.13;;;;;;;25.75;40.31;100351.66;5055228;28;20036;-79
2022/01/31 10:45:38;;;;;;;5.82;1.30;;;;;;;25.74;40.73;100364.38;5058370;28;20050;-79
2022/01/31 10:53:50;;;;;;;10.75;2.10;;;;;;;26.19;38.80;100351.31;5063692;28;20093;-79
2022/01/31 10:56:16;;;;;;;9.05;1.50;;;;;;;25.69;38.96;100377.84;5067213;28;20066;-79
2022/01/31 10:59:02;;;;;;;6.68;1.20;;;;;;;24.40;40.08;100388.59;5064232;28;20032;-79
2022/01/31 11:01:28;;;;;;;5.80;1.60;;;;;;;22.24;42.99;100372.84;5060873;28;20530;-79
2022/01/31 11:03:55;;;;;;;7.65;1.50;;;;;;;21.73;44.75;100377.94;5064595;28;20100;-78
2022/01/31 11:06:23;;;;;;;6.82;1.30;;;;;;;20.89;46.27;100380.78;5066487;28;20025;-78
2022/01/31 11:08:50;;;;;;;7.68;1.45;;;;;;;20.24;47.33;100397.50;5047875;28;20360;-79
2022/01/31 11:11:15;;;;;;;5.18;1.30;;;;;;;18.94;49.29;100399.06;5080923;28;20105;-79
2022/01/31 11:13:41;;;;;;;6.38;1.42;;;;;;;17.17;52.67;100398.31;5079465;28;20031;-79
2022/01/31 11:16:08;;;;;;;10.38;1.70;;;;;;;16.25;55.15;100395.19;5082038;28;20393;-79
2022/01/31 11:18:35;;;;;;;7.68;1.60;;;;;;;16.33;56.19;100429.66;5083720;28;20019;-78
2022/01/31 11:21:05;;;;;;;6.10;1.40;;;;;;;16.45;56.62;100422.72;5070441;28;20025;-79
2022/01/31 11:23:38;;;;;;;6.80;1.60;;;;;;;16.17;56.43;100427.31;5079375;28;20468;-79
2022/01/31 11:26:06;;;;;;;5.03;1.38;;;;;;;15.64;58.12;100441.88;5079712;28;20682;-79
2022/01/31 11:28:34;;;;;;;7.38;1.63;;;;;;;15.14;59.71;100432.25;5078886;28;20040;-79
2022/01/31 11:31:01;;;;;;;9.65;1.38;;;;;;;14.47;60.75;100438.63;5082484;28;20043;-79
2022/01/31 11:33:27;;;;;;;10.88;2.00;;;;;;;14.10;62.33;100446.53;5064787;28;20028;-79
2022/01/31 11:35:53;;;;;;;10.70;1.23;;;;;;;14.71;61.39;100446.31;5076036;28;20459;-79
2022/01/31 11:38:19;;;;;;;6.32;1.20;;;;;;;14.70;61.83;100459.75;5063465;28;20051;-79
2022/01/31 11:40:46;;;;;;;15.30;1.90;;;;;;;14.44;61.69;100470.84;5084150;28;20114;-79
2022/01/31 11:43:13;;;;;;;5.93;1.20;;;;;;;14.57;62.35;100465.75;5080238;28;20036;-78
2022/01/31 11:45:41;;;;;;;8.43;1.17;;;;;;;14.52;62.81;100468.09;5085177;28;20081;-78